sensor_id;sensor_type;location;lat;lon;timestamp;pressure;altitude;pressure_sealevel;temperature;humidity
20015;BME280;61787;42.022;23.078;2023-08-24T00:00:15;96784.59;;;25.67;55.42
20015;BME280;61787;42.022;23.078;2023-08-24T00:01:17;96783.72;;;25.70;55.66
20015;BME280;61787;42.022;23.078;2023-08-24T00:02:18;96786.13;;;25.68;55.76
20015;BME280;61787;42.022;23.078;2023-08-24T00:03:20;96787.69;;;25.69;55.70
20015;BME280;61787;42.022;23.078;2023-08-24T00:04:24;96782.88;;;25.73;55.75
20015;BME280;61787;42.022;23.078;2023-08-24T00:05:25;96780.44;;;25.75;55.69
20015;BME280;61787;42.022;23.078;2023-08-24T00:06:27;96785.94;;;25.75;55.89
20015;BME280;61787;42.022;23.078;2023-08-24T00:07:29;96782.88;;;25.73;55.83
20015;BME280;61787;42.022;23.078;2023-08-24T00:08:30;96774.94;;;25.75;55.52
20015;BME280;61787;42.022;23.078;2023-08-24T00:09:32;96783.19;;;25.75;55.82
20015;BME280;61787;42.022;23.078;2023-08-24T00:10:34;96779.09;;;25.67;55.61
20015;BME280;61787;42.022;23.078;2023-08-24T00:11:36;96784.75;;;25.60;55.87
20015;BME280;61787;42.022;23.078;2023-08-24T00:12:38;96784.75;;;25.60;55.88
20015;BME280;61787;42.022;23.078;2023-08-24T00:13:44;96789.06;;;25.61;55.85
20015;BME280;61787;42.022;23.078;2023-08-24T00:14:50;96779.97;;;25.64;55.39
20015;BME280;61787;42.022;23.078;2023-08-24T00:15:53;96787.88;;;25.62;55.38
20015;BME280;61787;42.022;23.078;2023-08-24T00:16:55;96784.50;;;25.55;55.99
20015;BME280;61787;42.022;23.078;2023-08-24T00:17:57;96779.44;;;25.53;55.65
20015;BME280;61787;42.022;23.078;2023-08-24T00:18:59;96784.59;;;25.51;56.03
20015;BME280;61787;42.022;23.078;2023-08-24T00:20:01;96781.59;;;25.45;56.09
20015;BME280;61787;42.022;23.078;2023-08-24T00:21:06;96784.44;;;25.42;56.08
20015;BME280;61787;42.022;23.078;2023-08-24T00:22:09;96786.66;;;25.31;56.84
20015;BME280;61787;42.022;23.078;2023-08-24T00:23:10;96778.94;;;25.10;58.06
20015;BME280;61787;42.022;23.078;2023-08-24T00:24:12;96787.00;;;25.00;58.29
20015;BME280;61787;42.022;23.078;2023-08-24T00:25:13;96789.22;;;24.89;58.39
20015;BME280;61787;42.022;23.078;2023-08-24T00:26:16;96789.03;;;24.80;59.17
20015;BME280;61787;42.022;23.078;2023-08-24T00:27:21;96786.78;;;24.75;58.70
20015;BME280;61787;42.022;23.078;2023-08-24T00:28:22;96786.25;;;24.64;59.25
20015;BME280;61787;42.022;23.078;2023-08-24T00:29:24;96787.94;;;24.58;59.48
20015;BME280;61787;42.022;23.078;2023-08-24T00:30:26;96787.13;;;24.61;59.40
20015;BME280;61787;42.022;23.078;2023-08-24T00:31:28;96787.72;;;24.69;59.57
20015;BME280;61787;42.022;23.078;2023-08-24T00:32:30;96789.19;;;24.73;59.59
20015;BME280;61787;42.022;23.078;2023-08-24T00:33:34;96783.28;;;24.75;59.46
20015;BME280;61787;42.022;23.078;2023-08-24T00:34:36;96788.50;;;24.69;59.15
20015;BME280;61787;42.022;23.078;2023-08-24T00:35:37;96784.78;;;24.59;59.63
20015;BME280;61787;42.022;23.078;2023-08-24T00:36:39;96791.19;;;24.53;59.73
20015;BME280;61787;42.022;23.078;2023-08-24T00:37:41;96782.63;;;24.51;59.63
20015;BME280;61787;42.022;23.078;2023-08-24T00:38:42;96782.53;;;24.54;59.56
20015;BME280;61787;42.022;23.078;2023-08-24T00:39:44;96792.59;;;24.61;59.68
20015;BME280;61787;42.022;23.078;2023-08-24T00:40:46;96791.59;;;24.71;59.26
20015;BME280;61787;42.022;23.078;2023-08-24T00:41:47;96786.63;;;24.82;58.84
20015;BME280;61787;42.022;23.078;2023-08-24T00:42:49;96790.91;;;24.83;58.94
20015;BME280;61787;42.022;23.078;2023-08-24T00:43:51;96788.09;;;24.87;58.94
20015;BME280;61787;42.022;23.078;2023-08-24T00:44:52;96785.78;;;24.85;58.91
20015;BME280;61787;42.022;23.078;2023-08-24T00:45:56;96780.28;;;24.85;58.72
20015;BME280;61787;42.022;23.078;2023-08-24T00:46:59;96784.22;;;24.84;58.59
20015;BME280;61787;42.022;23.078;2023-08-24T00:48:02;96788.94;;;24.84;58.66
20015;BME280;61787;42.022;23.078;2023-08-24T00:49:04;96785.50;;;24.80;58.65
20015;BME280;61787;42.022;23.078;2023-08-24T00:50:07;96784.56;;;24.70;59.04
20015;BME280;61787;42.022;23.078;2023-08-24T00:51:09;96784.09;;;24.55;59.50
20015;BME280;61787;42.022;23.078;2023-08-24T00:52:11;96787.47;;;24.43;60.29
20015;BME280;61787;42.022;23.078;2023-08-24T00:53:13;96785.31;;;24.35;60.56
20015;BME280;61787;42.022;23.078;2023-08-24T00:54:15;96782.72;;;24.28;60.88
20015;BME280;61787;42.022;23.078;2023-08-24T00:55:18;96783.72;;;24.17;61.03
20015;BME280;61787;42.022;23.078;2023-08-24T00:56:19;96780.25;;;24.13;61.27
20015;BME280;61787;42.022;23.078;2023-08-24T00:57:27;96783.31;;;24.19;60.93
20015;BME280;61787;42.022;23.078;2023-08-24T00:58:28;96785.63;;;24.20;60.84
20015;BME280;61787;42.022;23.078;2023-08-24T00:59:31;96781.88;;;24.11;60.96
20015;BME280;61787;42.022;23.078;2023-08-24T01:00:34;96781.03;;;23.94;61.07
20015;BME280;61787;42.022;23.078;2023-08-24T01:01:37;96780.03;;;23.85;60.29
20015;BME280;61787;42.022;23.078;2023-08-24T01:02:40;96778.63;;;23.76;60.36
20015;BME280;61787;42.022;23.078;2023-08-24T01:03:42;96774.97;;;23.83;60.22
20015;BME280;61787;42.022;23.078;2023-08-24T01:04:46;96779.84;;;23.95;60.38
20015;BME280;61787;42.022;23.078;2023-08-24T01:05:48;96780.38;;;24.06;60.61
20015;BME280;61787;42.022;23.078;2023-08-24T01:06:50;96779.38;;;24.16;61.27
20015;BME280;61787;42.022;23.078;2023-08-24T01:07:52;96775.78;;;24.23;61.33
20015;BME280;61787;42.022;23.078;2023-08-24T01:08:54;96774.50;;;24.28;61.21
20015;BME280;61787;42.022;23.078;2023-08-24T01:09:56;96776.69;;;24.36;60.95
20015;BME280;61787;42.022;23.078;2023-08-24T01:11:25;96775.31;;;24.44;60.37
20015;BME280;61787;42.022;23.078;2023-08-24T01:13:51;96778.16;;;24.41;60.40
20015;BME280;61787;42.022;23.078;2023-08-24T01:15:17;96782.56;;;24.15;61.73
20015;BME280;61787;42.022;23.078;2023-08-24T01:16:27;96780.03;;;23.85;62.75
20015;BME280;61787;42.022;23.078;2023-08-24T01:17:31;96777.59;;;23.90;62.97
20015;BME280;61787;42.022;23.078;2023-08-24T01:18:34;96775.06;;;23.99;62.83
20015;BME280;61787;42.022;23.078;2023-08-24T01:19:41;96774.91;;;24.06;62.66
20015;BME280;61787;42.022;23.078;2023-08-24T01:20:43;96773.22;;;24.12;62.87
20015;BME280;61787;42.022;23.078;2023-08-24T01:21:45;96775.50;;;24.17;62.62
20015;BME280;61787;42.022;23.078;2023-08-24T01:24:38;96776.06;;;24.29;62.25
20015;BME280;61787;42.022;23.078;2023-08-24T01:25:48;96776.75;;;24.33;62.20
20015;BME280;61787;42.022;23.078;2023-08-24T01:26:51;96773.16;;;24.36;62.04
20015;BME280;61787;42.022;23.078;2023-08-24T01:27:54;96775.06;;;24.39;61.92
20015;BME280;61787;42.022;23.078;2023-08-24T01:28:56;96781.22;;;24.43;61.75
20015;BME280;61787;42.022;23.078;2023-08-24T01:29:58;96776.47;;;24.47;61.51
20015;BME280;61787;42.022;23.078;2023-08-24T01:31:00;96771.66;;;24.51;61.28
20015;BME280;61787;42.022;23.078;2023-08-24T01:32:02;96772.00;;;24.53;61.15
20015;BME280;61787;42.022;23.078;2023-08-24T01:33:04;96768.06;;;24.54;61.13
20015;BME280;61787;42.022;23.078;2023-08-24T01:34:06;96772.34;;;24.55;60.98
20015;BME280;61787;42.022;23.078;2023-08-24T01:35:09;96768.94;;;24.51;61.06
20015;BME280;61787;42.022;23.078;2023-08-24T01:36:12;96775.75;;;24.43;61.23
20015;BME280;61787;42.022;23.078;2023-08-24T01:37:15;96768.31;;;24.24;62.13
20015;BME280;61787;42.022;23.078;2023-08-24T01:38:17;96763.34;;;24.18;62.42
20015;BME280;61787;42.022;23.078;2023-08-24T01:42:08;96759.59;;;24.29;62.43
20015;BME280;61787;42.022;23.078;2023-08-24T01:43:13;96758.06;;;24.28;62.49
20015;BME280;61787;42.022;23.078;2023-08-24T01:44:20;96762.84;;;24.24;62.52
20015;BME280;61787;42.022;23.078;2023-08-24T01:45:29;96761.44;;;24.15;62.92
20015;BME280;61787;42.022;23.078;2023-08-24T01:46:31;96755.94;;;24.15;62.99
20015;BME280;61787;42.022;23.078;2023-08-24T01:47:36;96760.59;;;24.18;63.07
20015;BME280;61787;42.022;23.078;2023-08-24T01:48:40;96765.22;;;24.21;62.79
20015;BME280;61787;42.022;23.078;2023-08-24T01:49:42;96772.94;;;24.27;62.78
20015;BME280;61787;42.022;23.078;2023-08-24T01:50:44;96762.97;;;24.36;62.23
20015;BME280;61787;42.022;23.078;2023-08-24T01:51:48;96764.88;;;24.39;61.99
20015;BME280;61787;42.022;23.078;2023-08-24T01:52:50;96762.41;;;24.45;61.77
20015;BME280;61787;42.022;23.078;2023-08-24T01:53:53;96770.13;;;24.50;61.39
20015;BME280;61787;42.022;23.078;2023-08-24T01:54:55;96764.63;;;24.50;61.71
20015;BME280;61787;42.022;23.078;2023-08-24T01:55:56;96762.66;;;24.50;61.79
20015;BME280;61787;42.022;23.078;2023-08-24T01:56:58;96766.19;;;24.51;61.39
20015;BME280;61787;42.022;23.078;2023-08-24T01:58:00;96759.16;;;24.50;61.56
20015;BME280;61787;42.022;23.078;2023-08-24T01:59:01;96760.06;;;24.43;61.47
20015;BME280;61787;42.022;23.078;2023-08-24T02:00:04;96756.38;;;24.34;61.70
20015;BME280;61787;42.022;23.078;2023-08-24T02:01:08;96743.06;;;24.32;61.96
20015;BME280;61787;42.022;23.078;2023-08-24T02:02:11;96747.78;;;24.32;62.14
20015;BME280;61787;42.022;23.078;2023-08-24T02:03:13;96746.59;;;24.33;62.21
20015;BME280;61787;42.022;23.078;2023-08-24T02:04:15;96744.22;;;24.35;62.09
20015;BME280;61787;42.022;23.078;2023-08-24T02:05:20;96750.78;;;24.37;61.63
20015;BME280;61787;42.022;23.078;2023-08-24T02:06:21;96752.94;;;24.30;62.04
20015;BME280;61787;42.022;23.078;2023-08-24T02:07:23;96755.47;;;24.20;61.97
20015;BME280;61787;42.022;23.078;2023-08-24T02:08:24;96755.81;;;24.23;61.98
20015;BME280;61787;42.022;23.078;2023-08-24T02:09:26;96759.69;;;24.25;62.33
20015;BME280;61787;42.022;23.078;2023-08-24T02:10:28;96758.50;;;24.26;61.81
20015;BME280;61787;42.022;23.078;2023-08-24T02:11:29;96765.88;;;24.29;61.73
20015;BME280;61787;42.022;23.078;2023-08-24T02:12:31;96758.34;;;24.33;61.80
20015;BME280;61787;42.022;23.078;2023-08-24T02:13:33;96757.91;;;24.35;61.80
20015;BME280;61787;42.022;23.078;2023-08-24T02:14:35;96753.22;;;24.35;61.74
20015;BME280;61787;42.022;23.078;2023-08-24T02:15:37;96764.22;;;24.32;61.58
20015;BME280;61787;42.022;23.078;2023-08-24T02:16:40;96764.22;;;24.32;62.07
20015;BME280;61787;42.022;23.078;2023-08-24T02:17:42;96761.00;;;24.37;61.87
20015;BME280;61787;42.022;23.078;2023-08-24T02:18:44;96770.34;;;24.39;61.34
20015;BME280;61787;42.022;23.078;2023-08-24T02:19:46;96770.34;;;24.39;61.45
20015;BME280;61787;42.022;23.078;2023-08-24T02:20:48;96769.16;;;24.40;61.41
20015;BME280;61787;42.022;23.078;2023-08-24T02:21:49;96774.19;;;24.42;60.72
20015;BME280;61787;42.022;23.078;2023-08-24T02:22:51;96771.91;;;24.40;60.71
20015;BME280;61787;42.022;23.078;2023-08-24T02:23:53;96771.44;;;24.26;59.99
20015;BME280;61787;42.022;23.078;2023-08-24T02:24:54;96777.16;;;24.11;60.49
20015;BME280;61787;42.022;23.078;2023-08-24T02:25:56;96773.31;;;24.09;60.47
20015;BME280;61787;42.022;23.078;2023-08-24T02:26:58;96770.28;;;24.03;60.90
20015;BME280;61787;42.022;23.078;2023-08-24T02:27:59;96776.53;;;24.04;59.77
20015;BME280;61787;42.022;23.078;2023-08-24T02:29:01;96775.06;;;23.99;60.34
20015;BME280;61787;42.022;23.078;2023-08-24T02:30:03;96774.28;;;23.99;60.63
20015;BME280;61787;42.022;23.078;2023-08-24T02:31:05;96773.16;;;23.96;60.62
20015;BME280;61787;42.022;23.078;2023-08-24T02:32:07;96775.19;;;23.92;60.66
20015;BME280;61787;42.022;23.078;2023-08-24T02:33:09;96772.44;;;23.92;60.99
20015;BME280;61787;42.022;23.078;2023-08-24T02:34:11;96777.03;;;23.79;60.67
20015;BME280;61787;42.022;23.078;2023-08-24T02:35:14;96778.47;;;23.64;61.28
20015;BME280;61787;42.022;23.078;2023-08-24T02:36:15;96778.72;;;23.50;61.92
20015;BME280;61787;42.022;23.078;2023-08-24T02:37:17;96786.09;;;23.53;62.09
20015;BME280;61787;42.022;23.078;2023-08-24T02:38:19;96791.91;;;23.55;62.02
20015;BME280;61787;42.022;23.078;2023-08-24T02:39:20;96789.31;;;23.48;62.13
20015;BME280;61787;42.022;23.078;2023-08-24T02:40:22;96790.53;;;23.43;62.83
20015;BME280;61787;42.022;23.078;2023-08-24T02:41:24;96781.66;;;23.35;62.79
20015;BME280;61787;42.022;23.078;2023-08-24T02:42:25;96786.34;;;23.38;63.05
20015;BME280;61787;42.022;23.078;2023-08-24T02:43:27;96789.84;;;23.39;62.99
20015;BME280;61787;42.022;23.078;2023-08-24T02:44:29;96793.63;;;23.22;63.20
20015;BME280;61787;42.022;23.078;2023-08-24T02:45:30;96788.28;;;22.88;64.29
20015;BME280;61787;42.022;23.078;2023-08-24T02:46:32;96792.50;;;22.66;65.29
20015;BME280;61787;42.022;23.078;2023-08-24T02:47:34;96791.78;;;22.62;65.56
20015;BME280;61787;42.022;23.078;2023-08-24T02:48:35;96796.16;;;22.56;65.88
20015;BME280;61787;42.022;23.078;2023-08-24T02:49:37;96798.78;;;22.36;66.88
20015;BME280;61787;42.022;23.078;2023-08-24T02:50:40;96795.94;;;22.43;66.88
20015;BME280;61787;42.022;23.078;2023-08-24T02:51:41;96791.38;;;22.63;66.81
20015;BME280;61787;42.022;23.078;2023-08-24T02:52:43;96798.25;;;22.75;66.13
20015;BME280;61787;42.022;23.078;2023-08-24T02:53:44;96805.91;;;22.87;65.34
20015;BME280;61787;42.022;23.078;2023-08-24T02:54:46;96805.06;;;22.90;65.20
20015;BME280;61787;42.022;23.078;2023-08-24T02:55:48;96803.78;;;22.98;64.83
20015;BME280;61787;42.022;23.078;2023-08-24T02:56:49;96809.53;;;23.04;64.73
20015;BME280;61787;42.022;23.078;2023-08-24T02:57:51;96804.03;;;23.07;64.70
20015;BME280;61787;42.022;23.078;2023-08-24T02:58:53;96805.13;;;23.13;64.54
20015;BME280;61787;42.022;23.078;2023-08-24T02:59:54;96801.91;;;23.18;64.65
20015;BME280;61787;42.022;23.078;2023-08-24T03:00:56;96807.31;;;23.22;64.65
20015;BME280;61787;42.022;23.078;2023-08-24T03:01:58;96801.44;;;23.23;64.92
20015;BME280;61787;42.022;23.078;2023-08-24T03:03:00;96806.91;;;23.23;64.76
20015;BME280;61787;42.022;23.078;2023-08-24T03:04:02;96810.00;;;23.25;64.92
20015;BME280;61787;42.022;23.078;2023-08-24T03:05:06;96802.19;;;23.24;65.53
20015;BME280;61787;42.022;23.078;2023-08-24T03:06:08;96808.09;;;23.22;65.72
20015;BME280;61787;42.022;23.078;2023-08-24T03:07:10;96805.06;;;23.17;65.62
20015;BME280;61787;42.022;23.078;2023-08-24T03:08:11;96814.97;;;23.07;66.20
20015;BME280;61787;42.022;23.078;2023-08-24T03:09:13;96807.34;;;22.95;66.01
20015;BME280;61787;42.022;23.078;2023-08-24T03:10:15;96805.41;;;22.65;66.86
20015;BME280;61787;42.022;23.078;2023-08-24T03:11:16;96807.50;;;22.54;67.30
20015;BME280;61787;42.022;23.078;2023-08-24T03:12:18;96816.94;;;22.49;67.53
20015;BME280;61787;42.022;23.078;2023-08-24T03:13:20;96813.50;;;22.42;68.01
20015;BME280;61787;42.022;23.078;2023-08-24T03:14:21;96814.41;;;22.35;68.36
20015;BME280;61787;42.022;23.078;2023-08-24T03:15:23;96812.91;;;22.27;68.71
20015;BME280;61787;42.022;23.078;2023-08-24T03:16:26;96801.31;;;22.20;69.04
20015;BME280;61787;42.022;23.078;2023-08-24T03:17:27;96814.19;;;22.19;69.10
20015;BME280;61787;42.022;23.078;2023-08-24T03:18:29;96810.75;;;22.15;69.54
20015;BME280;61787;42.022;23.078;2023-08-24T03:19:31;96809.97;;;22.15;69.59
20015;BME280;61787;42.022;23.078;2023-08-24T03:20:32;96814.28;;;22.12;69.89
20015;BME280;61787;42.022;23.078;2023-08-24T03:21:34;96809.63;;;22.09;70.07
20015;BME280;61787;42.022;23.078;2023-08-24T03:22:36;96817.84;;;22.09;70.28
20015;BME280;61787;42.022;23.078;2023-08-24T03:23:38;96819.38;;;22.10;70.34
20015;BME280;61787;42.022;23.078;2023-08-24T03:24:39;96825.66;;;22.07;70.02
20015;BME280;61787;42.022;23.078;2023-08-24T03:25:41;96823.38;;;22.02;70.79
20015;BME280;61787;42.022;23.078;2023-08-24T03:26:43;96820.38;;;21.89;71.23
20015;BME280;61787;42.022;23.078;2023-08-24T03:27:45;96821.25;;;21.79;71.85
20015;BME280;61787;42.022;23.078;2023-08-24T03:28:46;96814.69;;;21.73;72.16
20015;BME280;61787;42.022;23.078;2023-08-24T03:29:48;96822.97;;;21.62;72.60
20015;BME280;61787;42.022;23.078;2023-08-24T03:30:52;96817.22;;;21.50;73.33
20015;BME280;61787;42.022;23.078;2023-08-24T03:31:57;96827.13;;;21.33;74.50
20015;BME280;61787;42.022;23.078;2023-08-24T03:32:58;96817.53;;;21.18;75.27
20015;BME280;61787;42.022;23.078;2023-08-24T03:34:01;96819.53;;;21.07;75.87
20015;BME280;61787;42.022;23.078;2023-08-24T03:35:02;96825.41;;;21.02;76.51
20015;BME280;61787;42.022;23.078;2023-08-24T03:36:04;96830.81;;;21.05;76.62
20015;BME280;61787;42.022;23.078;2023-08-24T03:37:06;96830.00;;;21.12;76.97
20015;BME280;61787;42.022;23.078;2023-08-24T03:38:08;96826.56;;;21.01;77.38
20015;BME280;61787;42.022;23.078;2023-08-24T03:39:10;96830.91;;;20.91;77.62
20015;BME280;61787;42.022;23.078;2023-08-24T03:40:13;96832.91;;;20.83;77.89
20015;BME280;61787;42.022;23.078;2023-08-24T03:41:14;96831.72;;;20.84;78.18
20015;BME280;61787;42.022;23.078;2023-08-24T03:42:16;96827.44;;;20.83;78.66
20015;BME280;61787;42.022;23.078;2023-08-24T03:43:18;96829.00;;;20.84;78.04
20015;BME280;61787;42.022;23.078;2023-08-24T03:44:19;96835.56;;;20.94;78.27
20015;BME280;61787;42.022;23.078;2023-08-24T03:45:22;96831.97;;;21.08;77.52
20015;BME280;61787;42.022;23.078;2023-08-24T03:46:23;96834.66;;;21.15;77.02
20015;BME280;61787;42.022;23.078;2023-08-24T03:47:26;96835.41;;;21.22;76.86
20015;BME280;61787;42.022;23.078;2023-08-24T03:48:27;96839.66;;;21.27;76.63
20015;BME280;61787;42.022;23.078;2023-08-24T03:49:29;96846.66;;;21.28;76.53
20015;BME280;61787;42.022;23.078;2023-08-24T03:50:30;96842.38;;;21.27;76.36
20015;BME280;61787;42.022;23.078;2023-08-24T03:51:32;96855.94;;;21.38;76.39
20015;BME280;61787;42.022;23.078;2023-08-24T03:52:34;96852.78;;;21.39;75.92
20015;BME280;61787;42.022;23.078;2023-08-24T03:53:35;96854.69;;;21.49;75.71
20015;BME280;61787;42.022;23.078;2023-08-24T03:54:37;96850.31;;;21.59;75.56
20015;BME280;61787;42.022;23.078;2023-08-24T03:55:39;96855.66;;;21.69;75.33
20015;BME280;61787;42.022;23.078;2023-08-24T03:56:40;96851.63;;;21.85;75.25
20015;BME280;61787;42.022;23.078;2023-08-24T03:57:42;96850.75;;;21.95;74.73
20015;BME280;61787;42.022;23.078;2023-08-24T03:58:44;96847.94;;;22.02;74.65
20015;BME280;61787;42.022;23.078;2023-08-24T03:59:45;96853.69;;;22.11;73.76
20015;BME280;61787;42.022;23.078;2023-08-24T04:00:47;96858.63;;;22.23;73.31
20015;BME280;61787;42.022;23.078;2023-08-24T04:01:48;96864.44;;;22.29;73.27
20015;BME280;61787;42.022;23.078;2023-08-24T04:02:50;96857.38;;;22.31;72.81
20015;BME280;61787;42.022;23.078;2023-08-24T04:03:52;96858.91;;;22.36;71.94
20015;BME280;61787;42.022;23.078;2023-08-24T04:04:54;96865.84;;;22.40;72.06
20015;BME280;61787;42.022;23.078;2023-08-24T04:05:55;96866.59;;;22.44;71.26
20015;BME280;61787;42.022;23.078;2023-08-24T04:06:57;96863.41;;;22.49;71.25
20015;BME280;61787;42.022;23.078;2023-08-24T04:07:59;96859.06;;;22.52;70.85
20015;BME280;61787;42.022;23.078;2023-08-24T04:09:06;96861.41;;;22.53;70.81
20015;BME280;61787;42.022;23.078;2023-08-24T04:10:08;96857.84;;;22.57;70.38
20015;BME280;61787;42.022;23.078;2023-08-24T04:11:10;96862.88;;;22.62;70.01
20015;BME280;61787;42.022;23.078;2023-08-24T04:12:12;96859.31;;;22.65;70.02
20015;BME280;61787;42.022;23.078;2023-08-24T04:13:13;96869.00;;;22.69;70.36
20015;BME280;61787;42.022;23.078;2023-08-24T04:14:15;96863.50;;;22.73;70.37
20015;BME280;61787;42.022;23.078;2023-08-24T04:15:17;96862.69;;;22.76;70.30
20015;BME280;61787;42.022;23.078;2023-08-24T04:16:18;96865.44;;;22.76;70.57
20015;BME280;61787;42.022;23.078;2023-08-24T04:17:20;96868.19;;;22.76;70.36
20015;BME280;61787;42.022;23.078;2023-08-24T04:18:22;96861.56;;;22.70;69.69
20015;BME280;61787;42.022;23.078;2023-08-24T04:19:23;96866.31;;;22.66;69.93
20015;BME280;61787;42.022;23.078;2023-08-24T04:20:25;96863.88;;;22.75;70.11
20015;BME280;61787;42.022;23.078;2023-08-24T04:21:27;96865.31;;;22.83;69.84
20015;BME280;61787;42.022;23.078;2023-08-24T04:22:28;96861.31;;;22.91;69.72
20015;BME280;61787;42.022;23.078;2023-08-24T04:23:30;96864.78;;;22.95;69.41
20015;BME280;61787;42.022;23.078;2023-08-24T04:24:31;96867.41;;;23.02;69.13
20015;BME280;61787;42.022;23.078;2023-08-24T04:25:33;96863.84;;;23.05;68.76
20015;BME280;61787;42.022;23.078;2023-08-24T04:26:35;96876.72;;;23.08;68.54
20015;BME280;61787;42.022;23.078;2023-08-24T04:27:37;96871.19;;;23.12;68.34
20015;BME280;61787;42.022;23.078;2023-08-24T04:28:38;96868.75;;;23.17;68.20
20015;BME280;61787;42.022;23.078;2023-08-24T04:29:40;96874.94;;;23.21;67.84
20015;BME280;61787;42.022;23.078;2023-08-24T04:30:54;96874.88;;;23.25;67.52
20015;BME280;61787;42.022;23.078;2023-08-24T04:31:57;96874.88;;;23.25;67.74
20015;BME280;61787;42.022;23.078;2023-08-24T04:32:59;96881.84;;;23.29;67.71
20015;BME280;61787;42.022;23.078;2023-08-24T04:34:01;96878.63;;;23.34;67.80
20015;BME280;61787;42.022;23.078;2023-08-24T04:35:03;96878.53;;;23.42;67.70
20015;BME280;61787;42.022;23.078;2023-08-24T04:36:04;96880.91;;;23.39;67.54
20015;BME280;61787;42.022;23.078;2023-08-24T04:37:06;96873.91;;;23.38;67.63
20015;BME280;61787;42.022;23.078;2023-08-24T04:38:08;96881.75;;;23.36;67.31
20015;BME280;61787;42.022;23.078;2023-08-24T04:39:12;96878.63;;;23.34;67.76
20015;BME280;61787;42.022;23.078;2023-08-24T04:40:13;96872.59;;;23.23;67.27
20015;BME280;61787;42.022;23.078;2023-08-24T04:41:15;96875.78;;;23.18;68.09
20015;BME280;61787;42.022;23.078;2023-08-24T04:42:16;96880.41;;;23.21;67.96
20015;BME280;61787;42.022;23.078;2023-08-24T04:43:19;96881.03;;;23.32;67.80
20015;BME280;61787;42.022;23.078;2023-08-24T04:44:23;96882.13;;;23.38;68.19
20015;BME280;61787;42.022;23.078;2023-08-24T04:45:25;96885.13;;;23.48;67.99
20015;BME280;61787;42.022;23.078;2023-08-24T04:46:27;96889.28;;;23.56;67.54
20015;BME280;61787;42.022;23.078;2023-08-24T04:47:28;96892.63;;;23.67;66.74
20015;BME280;61787;42.022;23.078;2023-08-24T04:48:30;96888.94;;;23.77;66.68
20015;BME280;61787;42.022;23.078;2023-08-24T04:49:35;96890.84;;;23.80;66.45
20015;BME280;61787;42.022;23.078;2023-08-24T04:50:37;96885.72;;;23.82;66.35
20015;BME280;61787;42.022;23.078;2023-08-24T04:51:39;96884.91;;;23.85;66.24
20015;BME280;61787;42.022;23.078;2023-08-24T04:52:40;96880.63;;;23.84;66.21
20015;BME280;61787;42.022;23.078;2023-08-24T04:53:42;96879.44;;;23.85;66.04
20015;BME280;61787;42.022;23.078;2023-08-24T04:54:44;96884.75;;;23.92;66.10
20015;BME280;61787;42.022;23.078;2023-08-24T04:55:46;96880.84;;;23.93;66.07
20015;BME280;61787;42.022;23.078;2023-08-24T04:56:48;96880.72;;;24.00;65.79
20015;BME280;61787;42.022;23.078;2023-08-24T04:57:49;96893.28;;;23.98;65.16
20015;BME280;61787;42.022;23.078;2023-08-24T04:58:54;96886.19;;;24.00;65.10
20015;BME280;61787;42.022;23.078;2023-08-24T04:59:58;96888.88;;;24.04;65.10
20015;BME280;61787;42.022;23.078;2023-08-24T05:00:59;96892.97;;;24.15;64.77
20015;BME280;61787;42.022;23.078;2023-08-24T05:02:01;96892.44;;;24.24;64.97
20015;BME280;61787;42.022;23.078;2023-08-24T05:03:07;96889.50;;;24.35;64.91
20015;BME280;61787;42.022;23.078;2023-08-24T05:04:11;96888.16;;;24.43;64.21
20015;BME280;61787;42.022;23.078;2023-08-24T05:05:13;96886.25;;;24.59;63.18
20015;BME280;61787;42.022;23.078;2023-08-24T05:06:19;96887.31;;;24.66;63.06
20015;BME280;61787;42.022;23.078;2023-08-24T05:07:21;96889.88;;;24.73;62.71
20015;BME280;61787;42.022;23.078;2023-08-24T05:08:22;96888.97;;;24.79;62.16
20015;BME280;61787;42.022;23.078;2023-08-24T05:09:24;96891.56;;;24.86;61.53
20015;BME280;61787;42.022;23.078;2023-08-24T05:10:29;96889.03;;;24.95;60.99
20015;BME280;61787;42.022;23.078;2023-08-24T05:11:31;96888.19;;;24.98;61.12
20015;BME280;61787;42.022;23.078;2023-08-24T05:12:33;96890.09;;;25.01;60.92
20015;BME280;61787;42.022;23.078;2023-08-24T05:13:37;96889.50;;;25.10;61.32
20015;BME280;61787;42.022;23.078;2023-08-24T05:14:39;96882.72;;;25.15;61.01
20015;BME280;61787;42.022;23.078;2023-08-24T05:15:40;96891.22;;;25.20;60.89
20015;BME280;61787;42.022;23.078;2023-08-24T05:16:42;96887.72;;;25.20;61.15
20015;BME280;61787;42.022;23.078;2023-08-24T05:17:44;96887.72;;;25.20;60.37
20015;BME280;61787;42.022;23.078;2023-08-24T05:18:45;96890.03;;;25.21;61.11
20015;BME280;61787;42.022;23.078;2023-08-24T05:19:56;96886.38;;;25.28;60.56
20015;BME280;61787;42.022;23.078;2023-08-24T05:20:57;96892.69;;;25.25;60.68
20015;BME280;61787;42.022;23.078;2023-08-24T05:21:59;96886.78;;;25.26;60.44
20015;BME280;61787;42.022;23.078;2023-08-24T05:23:01;96885.84;;;25.33;60.03
20015;BME280;61787;42.022;23.078;2023-08-24T05:24:03;96885.00;;;25.36;60.20
20015;BME280;61787;42.022;23.078;2023-08-24T05:25:06;96890.47;;;25.36;60.16
20015;BME280;61787;42.022;23.078;2023-08-24T05:26:07;96890.91;;;25.34;59.57
20015;BME280;61787;42.022;23.078;2023-08-24T05:27:09;96894.41;;;25.35;59.78
20015;BME280;61787;42.022;23.078;2023-08-24T05:28:10;96896.84;;;25.33;59.62
20015;BME280;61787;42.022;23.078;2023-08-24T05:29:12;96895.19;;;25.35;59.77
20015;BME280;61787;42.022;23.078;2023-08-24T05:30:14;96897.63;;;25.33;59.89
20015;BME280;61787;42.022;23.078;2023-08-24T05:31:16;96900.28;;;25.37;59.53
20015;BME280;61787;42.022;23.078;2023-08-24T05:32:22;96888.41;;;25.40;60.13